Terminal Aerodrome Forecast
Issued by NWS Grand Forks, ND

Home | Current Version | Previous Version | Text Only | Print | Product List | Glossary Off
Versions: 1 2 3 4 5 6 7 8 9 10 11 12 13 14

000
FTUS43 KFGF 211500 AAA
TAFFAR
TAF AMD
KFAR 211600Z 2116/2212 13006KT P6SM SCT250
      TEMPO 2116/2118 BKN020
     FM220000 06008KT P6SM TSRA BKN050CB
     FM220700 36011KT P6SM BKN025=

USA.gov is the U.S. government's official web portal to all federal, state and local government web resources and services.